sensor_id;sensor_type;location;lat;lon;timestamp;temperature;humidity
16515;DHT22;8370;52.556;7.970;2022-12-10T00:01:48;1.30;99.90
16515;DHT22;8370;52.556;7.970;2022-12-10T00:04:14;1.30;99.90
16515;DHT22;8370;52.556;7.970;2022-12-10T00:06:41;1.30;99.90
16515;DHT22;8370;52.556;7.970;2022-12-10T00:09:13;1.30;99.90
16515;DHT22;8370;52.556;7.970;2022-12-10T00:11:39;1.30;99.90
16515;DHT22;8370;52.556;7.970;2022-12-10T00:14:06;1.40;99.90
16515;DHT22;8370;52.556;7.970;2022-12-10T00:16:35;1.40;99.90
16515;DHT22;8370;52.556;7.970;2022-12-10T00:19:01;1.40;99.90
16515;DHT22;8370;52.556;7.970;2022-12-10T00:21:29;1.40;99.90
16515;DHT22;8370;52.556;7.970;2022-12-10T00:23:55;1.40;99.90
16515;DHT22;8370;52.556;7.970;2022-12-10T00:26:25;1.40;99.90
16515;DHT22;8370;52.556;7.970;2022-12-10T00:28:51;1.40;99.90
16515;DHT22;8370;52.556;7.970;2022-12-10T00:31:23;1.40;99.90
16515;DHT22;8370;52.556;7.970;2022-12-10T00:33:49;1.40;99.90
16515;DHT22;8370;52.556;7.970;2022-12-10T00:36:17;1.40;99.90
16515;DHT22;8370;52.556;7.970;2022-12-10T00:38:44;1.40;99.90
16515;DHT22;8370;52.556;7.970;2022-12-10T00:41:11;1.30;99.90
16515;DHT22;8370;52.556;7.970;2022-12-10T00:43:37;1.30;99.90
16515;DHT22;8370;52.556;7.970;2022-12-10T00:46:03;1.30;99.90
16515;DHT22;8370;52.556;7.970;2022-12-10T00:48:29;1.30;99.90
16515;DHT22;8370;52.556;7.970;2022-12-10T00:53:32;1.30;99.90
16515;DHT22;8370;52.556;7.970;2022-12-10T00:55:58;1.30;99.90
16515;DHT22;8370;52.556;7.970;2022-12-10T00:58:28;1.30;99.90
16515;DHT22;8370;52.556;7.970;2022-12-10T01:00:54;1.30;99.90
16515;DHT22;8370;52.556;7.970;2022-12-10T01:03:20;1.30;99.90
16515;DHT22;8370;52.556;7.970;2022-12-10T01:05:45;1.30;99.90
16515;DHT22;8370;52.556;7.970;2022-12-10T01:08:11;1.40;99.90
16515;DHT22;8370;52.556;7.970;2022-12-10T01:10:37;1.40;99.90
16515;DHT22;8370;52.556;7.970;2022-12-10T01:13:03;1.30;99.90
16515;DHT22;8370;52.556;7.970;2022-12-10T01:15:29;1.30;99.90
16515;DHT22;8370;52.556;7.970;2022-12-10T01:17:54;1.30;99.90
16515;DHT22;8370;52.556;7.970;2022-12-10T01:20:20;1.30;99.90
16515;DHT22;8370;52.556;7.970;2022-12-10T01:22:45;1.30;99.90
16515;DHT22;8370;52.556;7.970;2022-12-10T01:25:11;1.30;99.90
16515;DHT22;8370;52.556;7.970;2022-12-10T01:27:36;1.30;99.90
16515;DHT22;8370;52.556;7.970;2022-12-10T01:30:02;1.30;99.90
16515;DHT22;8370;52.556;7.970;2022-12-10T01:32:28;1.30;99.90
16515;DHT22;8370;52.556;7.970;2022-12-10T01:34:53;1.30;99.90
16515;DHT22;8370;52.556;7.970;2022-12-10T01:37:19;1.30;99.90
16515;DHT22;8370;52.556;7.970;2022-12-10T01:39:45;1.30;99.90
16515;DHT22;8370;52.556;7.970;2022-12-10T01:42:12;1.30;99.90
16515;DHT22;8370;52.556;7.970;2022-12-10T01:47:08;1.40;99.90
16515;DHT22;8370;52.556;7.970;2022-12-10T01:49:39;1.40;99.90
16515;DHT22;8370;52.556;7.970;2022-12-10T01:52:08;1.40;99.90
16515;DHT22;8370;52.556;7.970;2022-12-10T01:54:38;1.40;99.90
16515;DHT22;8370;52.556;7.970;2022-12-10T01:57:08;1.40;99.90
16515;DHT22;8370;52.556;7.970;2022-12-10T01:59:36;1.40;99.90
16515;DHT22;8370;52.556;7.970;2022-12-10T02:04:57;1.50;99.90
16515;DHT22;8370;52.556;7.970;2022-12-10T02:07:28;1.40;99.90
16515;DHT22;8370;52.556;7.970;2022-12-10T02:12:39;1.40;99.90
16515;DHT22;8370;52.556;7.970;2022-12-10T02:15:13;1.40;99.90
16515;DHT22;8370;52.556;7.970;2022-12-10T02:17:43;1.40;99.90
16515;DHT22;8370;52.556;7.970;2022-12-10T02:22:55;1.40;99.90
16515;DHT22;8370;52.556;7.970;2022-12-10T02:25:26;1.40;99.90
16515;DHT22;8370;52.556;7.970;2022-12-10T02:28:05;1.40;99.90
16515;DHT22;8370;52.556;7.970;2022-12-10T02:30:34;1.40;99.90
16515;DHT22;8370;52.556;7.970;2022-12-10T02:33:03;1.40;99.90
16515;DHT22;8370;52.556;7.970;2022-12-10T02:35:33;1.40;99.90
16515;DHT22;8370;52.556;7.970;2022-12-10T02:38:11;1.40;99.90
16515;DHT22;8370;52.556;7.970;2022-12-10T02:40:38;1.40;99.90
16515;DHT22;8370;52.556;7.970;2022-12-10T02:43:07;1.40;99.90
16515;DHT22;8370;52.556;7.970;2022-12-10T02:45:34;1.40;99.90
16515;DHT22;8370;52.556;7.970;2022-12-10T02:48:02;1.40;99.90
16515;DHT22;8370;52.556;7.970;2022-12-10T02:50:28;1.40;99.90
16515;DHT22;8370;52.556;7.970;2022-12-10T02:52:53;1.40;99.90
16515;DHT22;8370;52.556;7.970;2022-12-10T02:55:19;1.40;99.90
16515;DHT22;8370;52.556;7.970;2022-12-10T02:57:56;1.30;99.90
16515;DHT22;8370;52.556;7.970;2022-12-10T03:00:25;1.30;99.90
16515;DHT22;8370;52.556;7.970;2022-12-10T03:03:16;1.30;99.90
16515;DHT22;8370;52.556;7.970;2022-12-10T03:08:56;1.20;99.90
16515;DHT22;8370;52.556;7.970;2022-12-10T03:11:24;1.20;99.90
16515;DHT22;8370;52.556;7.970;2022-12-10T03:14:00;1.20;99.90
16515;DHT22;8370;52.556;7.970;2022-12-10T03:16:37;1.20;99.90
16515;DHT22;8370;52.556;7.970;2022-12-10T03:19:07;1.20;99.90
16515;DHT22;8370;52.556;7.970;2022-12-10T03:21:36;1.10;99.90
16515;DHT22;8370;52.556;7.970;2022-12-10T03:24:03;1.10;99.90
16515;DHT22;8370;52.556;7.970;2022-12-10T03:26:29;1.10;99.90
16515;DHT22;8370;52.556;7.970;2022-12-10T03:29:01;1.10;99.90
16515;DHT22;8370;52.556;7.970;2022-12-10T03:31:29;1.20;99.90
16515;DHT22;8370;52.556;7.970;2022-12-10T03:33:55;1.20;99.90
16515;DHT22;8370;52.556;7.970;2022-12-10T03:36:21;1.20;99.90
16515;DHT22;8370;52.556;7.970;2022-12-10T03:38:47;1.20;99.90
16515;DHT22;8370;52.556;7.970;2022-12-10T03:41:13;1.20;99.90
16515;DHT22;8370;52.556;7.970;2022-12-10T03:43:52;1.20;99.90
16515;DHT22;8370;52.556;7.970;2022-12-10T03:46:18;1.20;99.90
16515;DHT22;8370;52.556;7.970;2022-12-10T03:48:44;1.20;99.90
16515;DHT22;8370;52.556;7.970;2022-12-10T03:51:09;1.20;99.90
16515;DHT22;8370;52.556;7.970;2022-12-10T03:53:35;1.20;99.90
16515;DHT22;8370;52.556;7.970;2022-12-10T03:56:00;1.10;99.90
16515;DHT22;8370;52.556;7.970;2022-12-10T03:58:26;1.10;99.90
16515;DHT22;8370;52.556;7.970;2022-12-10T04:00:51;1.10;99.90
16515;DHT22;8370;52.556;7.970;2022-12-10T04:03:17;1.10;99.90
16515;DHT22;8370;52.556;7.970;2022-12-10T04:05:42;1.10;99.90
16515;DHT22;8370;52.556;7.970;2022-12-10T04:08:08;1.10;99.90
16515;DHT22;8370;52.556;7.970;2022-12-10T04:10:37;1.10;99.90
16515;DHT22;8370;52.556;7.970;2022-12-10T04:13:03;1.20;99.90
16515;DHT22;8370;52.556;7.970;2022-12-10T04:15:47;1.20;99.90
16515;DHT22;8370;52.556;7.970;2022-12-10T04:18:31;1.20;99.90
16515;DHT22;8370;52.556;7.970;2022-12-10T04:20:57;1.20;99.90
16515;DHT22;8370;52.556;7.970;2022-12-10T04:23:41;1.10;99.90
16515;DHT22;8370;52.556;7.970;2022-12-10T04:26:25;1.10;99.90
16515;DHT22;8370;52.556;7.970;2022-12-10T04:29:09;1.10;99.90
16515;DHT22;8370;52.556;7.970;2022-12-10T04:31:35;1.10;99.90
16515;DHT22;8370;52.556;7.970;2022-12-10T04:34:00;1.10;99.90
16515;DHT22;8370;52.556;7.970;2022-12-10T04:36:26;1.00;99.90
16515;DHT22;8370;52.556;7.970;2022-12-10T04:38:51;1.00;99.90
16515;DHT22;8370;52.556;7.970;2022-12-10T04:41:17;1.00;99.90
16515;DHT22;8370;52.556;7.970;2022-12-10T04:43:43;0.90;99.90
16515;DHT22;8370;52.556;7.970;2022-12-10T04:46:09;0.90;99.90
16515;DHT22;8370;52.556;7.970;2022-12-10T04:48:35;0.80;99.90
16515;DHT22;8370;52.556;7.970;2022-12-10T04:51:01;0.80;99.90
16515;DHT22;8370;52.556;7.970;2022-12-10T04:53:26;0.70;99.90
16515;DHT22;8370;52.556;7.970;2022-12-10T04:55:52;0.70;99.90
16515;DHT22;8370;52.556;7.970;2022-12-10T04:58:17;0.60;99.90
16515;DHT22;8370;52.556;7.970;2022-12-10T05:00:43;0.60;99.90
16515;DHT22;8370;52.556;7.970;2022-12-10T05:03:08;0.50;99.90
16515;DHT22;8370;52.556;7.970;2022-12-10T05:05:34;0.50;99.90
16515;DHT22;8370;52.556;7.970;2022-12-10T05:08:00;0.60;99.90
16515;DHT22;8370;52.556;7.970;2022-12-10T05:10:25;0.60;99.90
16515;DHT22;8370;52.556;7.970;2022-12-10T05:12:52;0.60;99.90
16515;DHT22;8370;52.556;7.970;2022-12-10T05:15:17;0.50;99.90
16515;DHT22;8370;52.556;7.970;2022-12-10T05:17:43;0.60;99.90
16515;DHT22;8370;52.556;7.970;2022-12-10T05:20:09;0.50;99.90
16515;DHT22;8370;52.556;7.970;2022-12-10T05:22:34;0.50;99.90
16515;DHT22;8370;52.556;7.970;2022-12-10T05:25:26;0.50;99.90
16515;DHT22;8370;52.556;7.970;2022-12-10T05:27:51;0.50;99.90
16515;DHT22;8370;52.556;7.970;2022-12-10T05:30:17;0.60;99.90
16515;DHT22;8370;52.556;7.970;2022-12-10T05:32:43;0.50;99.90
16515;DHT22;8370;52.556;7.970;2022-12-10T05:35:08;0.60;99.90
16515;DHT22;8370;52.556;7.970;2022-12-10T05:37:34;0.60;99.90
16515;DHT22;8370;52.556;7.970;2022-12-10T05:39:59;0.60;99.90
16515;DHT22;8370;52.556;7.970;2022-12-10T05:42:25;0.60;99.90
16515;DHT22;8370;52.556;7.970;2022-12-10T05:44:50;0.60;99.90
16515;DHT22;8370;52.556;7.970;2022-12-10T05:47:16;0.60;99.90
16515;DHT22;8370;52.556;7.970;2022-12-10T05:49:41;0.70;99.90
16515;DHT22;8370;52.556;7.970;2022-12-10T05:52:07;0.70;99.90
16515;DHT22;8370;52.556;7.970;2022-12-10T05:54:34;0.60;99.90
16515;DHT22;8370;52.556;7.970;2022-12-10T05:56:59;0.60;99.90
16515;DHT22;8370;52.556;7.970;2022-12-10T05:59:25;0.50;99.90
16515;DHT22;8370;52.556;7.970;2022-12-10T06:01:50;0.50;99.90
16515;DHT22;8370;52.556;7.970;2022-12-10T06:04:16;0.50;99.90
16515;DHT22;8370;52.556;7.970;2022-12-10T06:06:41;0.40;99.90
16515;DHT22;8370;52.556;7.970;2022-12-10T06:09:11;0.40;99.90
16515;DHT22;8370;52.556;7.970;2022-12-10T06:11:37;0.40;99.90
16515;DHT22;8370;52.556;7.970;2022-12-10T06:14:02;0.30;99.90
16515;DHT22;8370;52.556;7.970;2022-12-10T06:16:28;0.30;99.90
16515;DHT22;8370;52.556;7.970;2022-12-10T06:18:55;0.20;99.90
16515;DHT22;8370;52.556;7.970;2022-12-10T06:21:21;0.20;99.90
16515;DHT22;8370;52.556;7.970;2022-12-10T06:23:48;0.10;99.90
16515;DHT22;8370;52.556;7.970;2022-12-10T06:26:16;0.10;99.90
16515;DHT22;8370;52.556;7.970;2022-12-10T06:28:46;0.00;99.90
16515;DHT22;8370;52.556;7.970;2022-12-10T06:31:12;0.00;99.90
16515;DHT22;8370;52.556;7.970;2022-12-10T06:33:38;-0.10;99.90
16515;DHT22;8370;52.556;7.970;2022-12-10T06:36:05;-0.20;99.90
16515;DHT22;8370;52.556;7.970;2022-12-10T06:38:32;-0.20;99.90
16515;DHT22;8370;52.556;7.970;2022-12-10T06:40:58;-0.30;99.90
16515;DHT22;8370;52.556;7.970;2022-12-10T06:43:23;-0.30;99.90
16515;DHT22;8370;52.556;7.970;2022-12-10T06:45:49;-0.40;99.90
16515;DHT22;8370;52.556;7.970;2022-12-10T06:48:15;-0.40;99.90
16515;DHT22;8370;52.556;7.970;2022-12-10T06:50:40;-0.40;99.90
16515;DHT22;8370;52.556;7.970;2022-12-10T06:53:06;-0.50;99.90
16515;DHT22;8370;52.556;7.970;2022-12-10T06:55:32;-0.50;99.90
16515;DHT22;8370;52.556;7.970;2022-12-10T06:57:57;-0.60;99.90
16515;DHT22;8370;52.556;7.970;2022-12-10T07:00:23;-0.60;99.90
16515;DHT22;8370;52.556;7.970;2022-12-10T07:02:49;-0.60;99.90
16515;DHT22;8370;52.556;7.970;2022-12-10T07:05:14;-0.70;99.90
16515;DHT22;8370;52.556;7.970;2022-12-10T07:07:40;-0.70;99.90
16515;DHT22;8370;52.556;7.970;2022-12-10T07:10:07;-0.70;99.90
16515;DHT22;8370;52.556;7.970;2022-12-10T07:12:33;-0.70;99.90
16515;DHT22;8370;52.556;7.970;2022-12-10T07:14:58;-0.70;99.90
16515;DHT22;8370;52.556;7.970;2022-12-10T07:17:24;-0.70;99.90
16515;DHT22;8370;52.556;7.970;2022-12-10T07:19:49;-0.80;99.90
16515;DHT22;8370;52.556;7.970;2022-12-10T07:22:15;-0.80;99.90
16515;DHT22;8370;52.556;7.970;2022-12-10T07:24:40;-0.90;99.90
16515;DHT22;8370;52.556;7.970;2022-12-10T07:27:07;-0.80;99.90
16515;DHT22;8370;52.556;7.970;2022-12-10T07:29:33;-0.80;99.90
16515;DHT22;8370;52.556;7.970;2022-12-10T07:31:58;-0.80;99.90
16515;DHT22;8370;52.556;7.970;2022-12-10T07:34:24;-0.90;99.90
16515;DHT22;8370;52.556;7.970;2022-12-10T07:36:50;-0.90;99.90
16515;DHT22;8370;52.556;7.970;2022-12-10T07:39:15;-0.90;99.90
16515;DHT22;8370;52.556;7.970;2022-12-10T07:41:47;-0.90;99.90
16515;DHT22;8370;52.556;7.970;2022-12-10T07:44:15;-0.90;99.90
16515;DHT22;8370;52.556;7.970;2022-12-10T07:46:42;-0.90;99.90
16515;DHT22;8370;52.556;7.970;2022-12-10T07:49:07;-0.90;99.90
16515;DHT22;8370;52.556;7.970;2022-12-10T07:51:33;-0.90;99.90
16515;DHT22;8370;52.556;7.970;2022-12-10T07:53:59;-0.90;99.90
16515;DHT22;8370;52.556;7.970;2022-12-10T07:56:25;-0.90;99.90
16515;DHT22;8370;52.556;7.970;2022-12-10T07:58:51;-0.90;99.90
16515;DHT22;8370;52.556;7.970;2022-12-10T08:01:20;-0.80;99.90
16515;DHT22;8370;52.556;7.970;2022-12-10T08:03:48;-0.80;99.90
16515;DHT22;8370;52.556;7.970;2022-12-10T08:06:16;-0.80;99.90
16515;DHT22;8370;52.556;7.970;2022-12-10T08:08:43;-0.70;99.90
16515;DHT22;8370;52.556;7.970;2022-12-10T08:11:09;-0.70;99.90
16515;DHT22;8370;52.556;7.970;2022-12-10T08:13:35;-0.60;99.90
16515;DHT22;8370;52.556;7.970;2022-12-10T08:16:06;-0.50;99.90
16515;DHT22;8370;52.556;7.970;2022-12-10T08:18:33;-0.50;99.90
16515;DHT22;8370;52.556;7.970;2022-12-10T08:21:04;-0.40;99.90
16515;DHT22;8370;52.556;7.970;2022-12-10T08:23:30;-0.30;99.90
16515;DHT22;8370;52.556;7.970;2022-12-10T08:25:55;-0.30;99.90
16515;DHT22;8370;52.556;7.970;2022-12-10T08:28:21;-0.30;99.90
16515;DHT22;8370;52.556;7.970;2022-12-10T08:30:47;-0.20;99.90
16515;DHT22;8370;52.556;7.970;2022-12-10T08:33:13;-0.20;99.90
16515;DHT22;8370;52.556;7.970;2022-12-10T08:35:38;-0.10;99.90
16515;DHT22;8370;52.556;7.970;2022-12-10T08:38:04;-0.10;99.90
16515;DHT22;8370;52.556;7.970;2022-12-10T08:40:29;0.00;99.90
16515;DHT22;8370;52.556;7.970;2022-12-10T08:42:55;0.10;99.90
16515;DHT22;8370;52.556;7.970;2022-12-10T08:45:20;0.10;99.90
16515;DHT22;8370;52.556;7.970;2022-12-10T08:47:46;0.10;99.90
16515;DHT22;8370;52.556;7.970;2022-12-10T08:50:12;0.20;99.90
16515;DHT22;8370;52.556;7.970;2022-12-10T08:52:37;0.20;99.90
16515;DHT22;8370;52.556;7.970;2022-12-10T08:55:03;0.30;99.90
16515;DHT22;8370;52.556;7.970;2022-12-10T08:57:28;0.40;99.90
16515;DHT22;8370;52.556;7.970;2022-12-10T08:59:54;0.50;99.90
16515;DHT22;8370;52.556;7.970;2022-12-10T09:02:19;0.60;99.90
16515;DHT22;8370;52.556;7.970;2022-12-10T09:04:45;0.70;99.90
16515;DHT22;8370;52.556;7.970;2022-12-10T09:07:12;0.70;99.90
16515;DHT22;8370;52.556;7.970;2022-12-10T09:09:37;0.80;99.90
16515;DHT22;8370;52.556;7.970;2022-12-10T09:12:03;0.90;99.90
16515;DHT22;8370;52.556;7.970;2022-12-10T09:14:29;0.90;99.90
16515;DHT22;8370;52.556;7.970;2022-12-10T09:16:54;1.00;99.90
16515;DHT22;8370;52.556;7.970;2022-12-10T09:19:20;1.00;99.90
16515;DHT22;8370;52.556;7.970;2022-12-10T09:21:45;1.10;99.90
16515;DHT22;8370;52.556;7.970;2022-12-10T09:24:12;1.10;99.90
16515;DHT22;8370;52.556;7.970;2022-12-10T09:26:38;1.20;99.90
16515;DHT22;8370;52.556;7.970;2022-12-10T09:29:04;1.30;99.90
16515;DHT22;8370;52.556;7.970;2022-12-10T09:31:29;1.30;99.90
16515;DHT22;8370;52.556;7.970;2022-12-10T09:33:55;1.40;99.90
16515;DHT22;8370;52.556;7.970;2022-12-10T09:36:21;1.40;99.90
16515;DHT22;8370;52.556;7.970;2022-12-10T09:38:48;1.40;99.90
16515;DHT22;8370;52.556;7.970;2022-12-10T09:41:35;1.50;99.90
16515;DHT22;8370;52.556;7.970;2022-12-10T09:46:57;1.70;99.90
16515;DHT22;8370;52.556;7.970;2022-12-10T09:52:17;1.70;99.90
16515;DHT22;8370;52.556;7.970;2022-12-10T09:54:47;1.80;99.90
16515;DHT22;8370;52.556;7.970;2022-12-10T09:57:35;1.80;99.90
16515;DHT22;8370;52.556;7.970;2022-12-10T10:00:37;1.80;99.90
16515;DHT22;8370;52.556;7.970;2022-12-10T10:03:04;1.90;99.90
16515;DHT22;8370;52.556;7.970;2022-12-10T10:05:35;1.90;99.90
16515;DHT22;8370;52.556;7.970;2022-12-10T10:08:06;1.90;99.90
16515;DHT22;8370;52.556;7.970;2022-12-10T10:10:36;1.90;99.90
16515;DHT22;8370;52.556;7.970;2022-12-10T10:15:37;1.90;99.90
16515;DHT22;8370;52.556;7.970;2022-12-10T10:20:39;2.00;99.90
16515;DHT22;8370;52.556;7.970;2022-12-10T10:23:05;2.00;99.90
16515;DHT22;8370;52.556;7.970;2022-12-10T10:25:31;2.10;99.90
16515;DHT22;8370;52.556;7.970;2022-12-10T10:27:57;2.10;99.90
16515;DHT22;8370;52.556;7.970;2022-12-10T10:30:23;2.10;99.90
16515;DHT22;8370;52.556;7.970;2022-12-10T10:32:55;2.10;99.90
16515;DHT22;8370;52.556;7.970;2022-12-10T10:35:30;2.10;99.90
16515;DHT22;8370;52.556;7.970;2022-12-10T10:37:59;2.20;99.90
16515;DHT22;8370;52.556;7.970;2022-12-10T10:40:32;2.30;99.90
16515;DHT22;8370;52.556;7.970;2022-12-10T10:42:59;2.40;99.90
16515;DHT22;8370;52.556;7.970;2022-12-10T10:46:06;2.50;99.90
16515;DHT22;8370;52.556;7.970;2022-12-10T10:48:36;2.60;99.90
16515;DHT22;8370;52.556;7.970;2022-12-10T10:51:15;2.60;99.90
16515;DHT22;8370;52.556;7.970;2022-12-10T10:56:13;2.50;99.90
16515;DHT22;8370;52.556;7.970;2022-12-10T10:59:06;2.50;99.90
16515;DHT22;8370;52.556;7.970;2022-12-10T11:01:48;2.50;99.90
16515;DHT22;8370;52.556;7.970;2022-12-10T11:04:16;2.50;99.90
16515;DHT22;8370;52.556;7.970;2022-12-10T11:06:43;2.70;99.90
16515;DHT22;8370;52.556;7.970;2022-12-10T11:09:20;2.80;99.90
16515;DHT22;8370;52.556;7.970;2022-12-10T11:11:50;2.80;99.90
16515;DHT22;8370;52.556;7.970;2022-12-10T11:14:40;2.90;99.90
16515;DHT22;8370;52.556;7.970;2022-12-10T11:17:19;3.00;99.90
16515;DHT22;8370;52.556;7.970;2022-12-10T11:20:01;3.20;99.90
16515;DHT22;8370;52.556;7.970;2022-12-10T11:22:31;3.20;99.90
16515;DHT22;8370;52.556;7.970;2022-12-10T11:24:58;3.30;99.90
16515;DHT22;8370;52.556;7.970;2022-12-10T11:27:45;3.60;99.90
16515;DHT22;8370;52.556;7.970;2022-12-10T11:30:20;3.90;99.90
16515;DHT22;8370;52.556;7.970;2022-12-10T11:38:37;4.00;99.90
16515;DHT22;8370;52.556;7.970;2022-12-10T11:59:34;4.10;99.90
16515;DHT22;8370;52.556;7.970;2022-12-10T12:02:23;4.10;99.90
16515;DHT22;8370;52.556;7.970;2022-12-10T12:13:37;3.60;99.90
16515;DHT22;8370;52.556;7.970;2022-12-10T12:16:13;3.40;99.90
16515;DHT22;8370;52.556;7.970;2022-12-10T12:19:02;3.20;99.90
16515;DHT22;8370;52.556;7.970;2022-12-10T12:21:28;3.10;99.90
16515;DHT22;8370;52.556;7.970;2022-12-10T12:24:05;2.90;99.90
16515;DHT22;8370;52.556;7.970;2022-12-10T12:26:39;2.80;99.90
16515;DHT22;8370;52.556;7.970;2022-12-10T12:29:23;2.80;99.90
16515;DHT22;8370;52.556;7.970;2022-12-10T12:32:10;2.80;99.90
16515;DHT22;8370;52.556;7.970;2022-12-10T12:37:13;2.80;99.90
16515;DHT22;8370;52.556;7.970;2022-12-10T12:39:48;2.80;99.90
16515;DHT22;8370;52.556;7.970;2022-12-10T12:42:37;2.80;99.90
16515;DHT22;8370;52.556;7.970;2022-12-10T12:45:18;2.70;99.90
16515;DHT22;8370;52.556;7.970;2022-12-10T12:53:14;2.80;99.90
16515;DHT22;8370;52.556;7.970;2022-12-10T13:01:51;2.80;99.90
16515;DHT22;8370;52.556;7.970;2022-12-10T13:04:18;2.80;99.90
16515;DHT22;8370;52.556;7.970;2022-12-10T13:12:30;2.70;99.90
16515;DHT22;8370;52.556;7.970;2022-12-10T13:15:03;2.80;99.90
16515;DHT22;8370;52.556;7.970;2022-12-10T13:17:38;2.80;99.90
16515;DHT22;8370;52.556;7.970;2022-12-10T13:23:03;2.70;99.90
16515;DHT22;8370;52.556;7.970;2022-12-10T13:25:40;2.70;99.90
16515;DHT22;8370;52.556;7.970;2022-12-10T13:37:02;2.40;99.90
16515;DHT22;8370;52.556;7.970;2022-12-10T13:39:52;2.40;99.90
16515;DHT22;8370;52.556;7.970;2022-12-10T13:42:26;2.40;99.90
16515;DHT22;8370;52.556;7.970;2022-12-10T13:45:26;2.30;99.90
16515;DHT22;8370;52.556;7.970;2022-12-10T14:02:06;2.40;99.90
16515;DHT22;8370;52.556;7.970;2022-12-10T14:07:37;2.50;99.90
16515;DHT22;8370;52.556;7.970;2022-12-10T14:10:03;2.50;99.90
16515;DHT22;8370;52.556;7.970;2022-12-10T14:12:36;2.50;99.90
16515;DHT22;8370;52.556;7.970;2022-12-10T14:15:07;2.50;99.90
16515;DHT22;8370;52.556;7.970;2022-12-10T14:17:40;2.50;99.90
16515;DHT22;8370;52.556;7.970;2022-12-10T14:20:08;2.40;99.90
16515;DHT22;8370;52.556;7.970;2022-12-10T14:22:52;2.30;99.90
16515;DHT22;8370;52.556;7.970;2022-12-10T14:25:23;2.30;99.90
16515;DHT22;8370;52.556;7.970;2022-12-10T14:27:50;2.30;99.90
16515;DHT22;8370;52.556;7.970;2022-12-10T14:30:20;2.20;99.90
16515;DHT22;8370;52.556;7.970;2022-12-10T14:32:46;2.20;99.90
16515;DHT22;8370;52.556;7.970;2022-12-10T14:35:15;2.20;99.90
16515;DHT22;8370;52.556;7.970;2022-12-10T14:37:43;2.20;99.90
16515;DHT22;8370;52.556;7.970;2022-12-10T14:40:22;2.10;99.90
16515;DHT22;8370;52.556;7.970;2022-12-10T14:42:49;2.10;99.90
16515;DHT22;8370;52.556;7.970;2022-12-10T14:45:16;2.10;99.90
16515;DHT22;8370;52.556;7.970;2022-12-10T14:47:41;2.10;99.90
16515;DHT22;8370;52.556;7.970;2022-12-10T14:50:12;2.00;99.90
16515;DHT22;8370;52.556;7.970;2022-12-10T14:52:49;2.10;99.90
16515;DHT22;8370;52.556;7.970;2022-12-10T14:55:18;2.00;99.90
16515;DHT22;8370;52.556;7.970;2022-12-10T14:57:49;2.00;99.90
16515;DHT22;8370;52.556;7.970;2022-12-10T15:00:18;2.00;99.90
16515;DHT22;8370;52.556;7.970;2022-12-10T15:02:50;2.00;99.90
16515;DHT22;8370;52.556;7.970;2022-12-10T15:05:20;2.00;99.90
16515;DHT22;8370;52.556;7.970;2022-12-10T15:08:07;2.00;99.90
16515;DHT22;8370;52.556;7.970;2022-12-10T15:10:42;2.00;99.90
16515;DHT22;8370;52.556;7.970;2022-12-10T15:13:21;2.00;99.90
16515;DHT22;8370;52.556;7.970;2022-12-10T15:15:51;2.00;99.90
16515;DHT22;8370;52.556;7.970;2022-12-10T15:18:20;2.00;99.90
16515;DHT22;8370;52.556;7.970;2022-12-10T15:20:54;2.00;99.90
16515;DHT22;8370;52.556;7.970;2022-12-10T15:33:58;1.90;99.90
16515;DHT22;8370;52.556;7.970;2022-12-10T15:38:56;1.80;99.90
16515;DHT22;8370;52.556;7.970;2022-12-10T15:41:22;1.80;99.90
16515;DHT22;8370;52.556;7.970;2022-12-10T15:47:05;1.70;99.90
16515;DHT22;8370;52.556;7.970;2022-12-10T15:49:33;1.70;99.90
16515;DHT22;8370;52.556;7.970;2022-12-10T15:51:59;1.70;99.90
16515;DHT22;8370;52.556;7.970;2022-12-10T15:54:45;1.70;99.90
16515;DHT22;8370;52.556;7.970;2022-12-10T15:57:15;1.60;99.90
16515;DHT22;8370;52.556;7.970;2022-12-10T15:59:42;1.70;99.90
16515;DHT22;8370;52.556;7.970;2022-12-10T16:05:01;1.60;99.90
16515;DHT22;8370;52.556;7.970;2022-12-10T16:07:27;1.60;99.90
16515;DHT22;8370;52.556;7.970;2022-12-10T16:09:52;1.60;99.90
16515;DHT22;8370;52.556;7.970;2022-12-10T16:12:19;1.60;99.90
16515;DHT22;8370;52.556;7.970;2022-12-10T16:14:52;1.60;99.90
16515;DHT22;8370;52.556;7.970;2022-12-10T16:17:19;1.60;99.90
16515;DHT22;8370;52.556;7.970;2022-12-10T16:19:45;1.60;99.90
16515;DHT22;8370;52.556;7.970;2022-12-10T16:22:11;1.60;99.90
16515;DHT22;8370;52.556;7.970;2022-12-10T16:24:36;1.60;99.90
16515;DHT22;8370;52.556;7.970;2022-12-10T16:27:10;1.60;99.90
16515;DHT22;8370;52.556;7.970;2022-12-10T16:29:36;1.60;99.90
16515;DHT22;8370;52.556;7.970;2022-12-10T16:32:01;1.60;99.90
16515;DHT22;8370;52.556;7.970;2022-12-10T16:34:27;1.60;99.90
16515;DHT22;8370;52.556;7.970;2022-12-10T16:36:52;1.60;99.90
16515;DHT22;8370;52.556;7.970;2022-12-10T16:39:18;1.60;99.90
16515;DHT22;8370;52.556;7.970;2022-12-10T16:41:43;1.50;99.90
16515;DHT22;8370;52.556;7.970;2022-12-10T16:44:09;1.60;99.90
16515;DHT22;8370;52.556;7.970;2022-12-10T16:46:35;1.50;99.90
16515;DHT22;8370;52.556;7.970;2022-12-10T16:49:01;1.60;99.90
16515;DHT22;8370;52.556;7.970;2022-12-10T16:51:29;1.60;99.90
16515;DHT22;8370;52.556;7.970;2022-12-10T16:53:55;1.60;99.90
16515;DHT22;8370;52.556;7.970;2022-12-10T16:56:21;1.50;99.90
16515;DHT22;8370;52.556;7.970;2022-12-10T16:58:47;1.50;99.90
16515;DHT22;8370;52.556;7.970;2022-12-10T17:01:33;1.60;99.90
16515;DHT22;8370;52.556;7.970;2022-12-10T17:04:00;1.60;99.90
16515;DHT22;8370;52.556;7.970;2022-12-10T17:06:26;1.60;99.90
16515;DHT22;8370;52.556;7.970;2022-12-10T17:08:52;1.60;99.90
16515;DHT22;8370;52.556;7.970;2022-12-10T17:11:23;1.60;99.90
16515;DHT22;8370;52.556;7.970;2022-12-10T17:14:21;1.60;99.90
16515;DHT22;8370;52.556;7.970;2022-12-10T17:16:47;1.50;99.90
16515;DHT22;8370;52.556;7.970;2022-12-10T17:19:13;1.50;99.90
16515;DHT22;8370;52.556;7.970;2022-12-10T17:21:39;1.50;99.90
16515;DHT22;8370;52.556;7.970;2022-12-10T17:24:05;1.50;99.90
16515;DHT22;8370;52.556;7.970;2022-12-10T17:26:33;1.50;99.90
16515;DHT22;8370;52.556;7.970;2022-12-10T17:29:06;1.50;99.90
16515;DHT22;8370;52.556;7.970;2022-12-10T17:31:32;1.50;99.90
16515;DHT22;8370;52.556;7.970;2022-12-10T17:33:58;1.50;99.90
16515;DHT22;8370;52.556;7.970;2022-12-10T17:36:23;1.40;99.90
16515;DHT22;8370;52.556;7.970;2022-12-10T17:38:49;1.40;99.90
16515;DHT22;8370;52.556;7.970;2022-12-10T17:41:14;1.40;99.90
16515;DHT22;8370;52.556;7.970;2022-12-10T17:43:41;1.40;99.90
16515;DHT22;8370;52.556;7.970;2022-12-10T17:46:10;1.30;99.90
16515;DHT22;8370;52.556;7.970;2022-12-10T17:48:36;1.30;99.90
16515;DHT22;8370;52.556;7.970;2022-12-10T17:51:02;1.30;99.90
16515;DHT22;8370;52.556;7.970;2022-12-10T17:53:27;1.30;99.90
16515;DHT22;8370;52.556;7.970;2022-12-10T17:55:57;1.30;99.90
16515;DHT22;8370;52.556;7.970;2022-12-10T17:58:23;1.20;99.90
16515;DHT22;8370;52.556;7.970;2022-12-10T18:00:51;1.20;99.90
16515;DHT22;8370;52.556;7.970;2022-12-10T18:03:17;1.20;99.90
16515;DHT22;8370;52.556;7.970;2022-12-10T18:05:43;1.20;99.90
16515;DHT22;8370;52.556;7.970;2022-12-10T18:08:11;1.20;99.90
16515;DHT22;8370;52.556;7.970;2022-12-10T18:10:37;1.20;99.90
16515;DHT22;8370;52.556;7.970;2022-12-10T18:13:04;1.20;99.90
16515;DHT22;8370;52.556;7.970;2022-12-10T18:15:30;1.10;99.90
16515;DHT22;8370;52.556;7.970;2022-12-10T18:17:57;1.10;99.90
16515;DHT22;8370;52.556;7.970;2022-12-10T18:20:35;1.10;99.90
16515;DHT22;8370;52.556;7.970;2022-12-10T18:23:02;1.10;99.90